Chetwynd, Canada
Current Conditions -  °F | °C
As of 5:00 PM on Sunday 23 Nov 2014 (Local Time) from CYCQ Reporting Station
Overcast Overcast  
Wind Chill: 18°   Ceiling: 11000
Heat Index: 18°   Visibility: 35mi
Dew Point: 12°   Wind: 3mph
Humidity: 79%   Direction: 40°NE
Pressure: 29.71"   Gusts: NA
Location:  55.7°N, 121.63°W
Report Text: CYCQ 240000Z 04003KT 35SM FEW030 SCT040 BKN110 OVC200 M08/M11 A2971 RMK SC1SC2AS3CI2 DIST PCPN W SLP110
Loading
Personal Weather Stations






























Interactive Weather Map New forecast layout! Learn more

10-Day Weather Forecast

Advertisements
Track Severe Weather on mobile